Time;durP1;ratioP1;P1;durP2;ratioP2;P2;SDS_P1;SDS_P2;PMS_P1;PMS_P2;Temp;Humidity;BMP_temperature;BMP_pressure;BME280_temperature;BME280_humidity;BME280_pressure;Samples;Min_cycle;Max_cycle;Signal;HPM_P1;HPM_P2
2022/07/12 00:01:52;;;;;;;2.30;2.10;;;;;;;17.04;78.25;101158.44;4931545;28;20484;-81
2022/07/12 00:04:18;;;;;;;2.20;2.00;;;;;;;17.03;78.43;101156.72;4931997;28;20051;-81
2022/07/12 00:06:46;;;;;;;4.15;1.90;;;;;;;16.98;78.23;101157.03;4934931;28;20552;-80
2022/07/12 00:09:13;;;;;;;3.00;1.80;;;;;;;16.88;78.66;101142.47;4927013;29;20044;-79
2022/07/12 00:11:40;;;;;;;3.55;2.00;;;;;;;16.94;78.81;101163.50;4935372;29;20052;-79
2022/07/12 00:14:08;;;;;;;3.08;1.88;;;;;;;16.93;79.15;101156.44;4933326;28;20135;-80
2022/07/12 00:16:35;;;;;;;3.47;2.20;;;;;;;16.89;79.10;101146.88;4933774;28;20044;-78
2022/07/12 00:19:04;;;;;;;2.25;2.00;;;;;;;16.99;79.45;101152.53;4936096;28;20131;-78
2022/07/12 00:21:31;;;;;;;3.42;2.03;;;;;;;16.93;79.07;101151.09;4938455;28;20051;-80
2022/07/12 00:23:58;;;;;;;2.58;2.38;;;;;;;16.79;79.19;101122.50;4929956;28;20055;-81
2022/07/12 00:26:27;;;;;;;2.27;2.07;;;;;;;17.04;78.95;101158.44;4938973;28;20071;-79
2022/07/12 00:28:54;;;;;;;3.08;2.03;;;;;;;16.85;78.98;101126.59;4933749;28;20110;-79
2022/07/12 00:31:21;;;;;;;3.67;2.33;;;;;;;17.01;79.09;101153.28;4935164;28;20515;-78
2022/07/12 00:33:48;;;;;;;3.22;2.50;;;;;;;17.02;78.92;101157.69;4931322;28;20078;-78
2022/07/12 00:36:15;;;;;;;2.47;2.28;;;;;;;17.00;79.03;101154.25;4935850;28;20044;-78
2022/07/12 00:38:42;;;;;;;2.63;2.42;;;;;;;16.89;79.19;101133.50;4935122;28;20063;-79
2022/07/12 00:41:09;;;;;;;2.72;2.05;;;;;;;16.95;78.90;101143.84;4932614;28;20062;-79
2022/07/12 00:43:37;;;;;;;2.70;2.20;;;;;;;16.89;79.30;101144.19;4929256;28;20160;-79
2022/07/12 00:46:04;;;;;;;3.20;2.90;;;;;;;16.83;79.83;101145.47;4930674;28;20047;-79
2022/07/12 00:48:34;;;;;;;2.85;2.60;;;;;;;16.80;79.97;101140.28;4925194;28;20064;-78
2022/07/12 00:51:01;;;;;;;2.60;2.40;;;;;;;16.81;79.98;101133.13;4929337;28;20060;-80
2022/07/12 00:53:28;;;;;;;3.47;2.70;;;;;;;16.72;79.66;101131.84;4932064;28;20070;-80
2022/07/12 00:55:58;;;;;;;3.05;2.30;;;;;;;16.75;79.89;101145.03;4922605;28;20048;-78
2022/07/12 00:58:26;;;;;;;2.80;2.30;;;;;;;16.72;80.18;101149.72;4927918;28;20044;-79
2022/07/12 01:00:58;;;;;;;3.50;2.58;;;;;;;16.68;80.32;101140.19;4931403;28;20058;-79
2022/07/12 01:03:26;;;;;;;2.97;2.38;;;;;;;16.53;80.53;101119.69;4927371;28;20048;-81
2022/07/12 01:05:53;;;;;;;3.55;2.00;;;;;;;16.46;80.68;101125.38;4930776;28;20055;-79
2022/07/12 01:08:20;;;;;;;2.42;2.22;;;;;;;16.57;80.98;101137.22;4929084;28;20058;-78
2022/07/12 01:10:49;;;;;;;3.47;2.40;;;;;;;16.54;81.22;101140.09;4931703;28;20133;-81
2022/07/12 01:13:17;;;;;;;3.65;2.80;;;;;;;16.55;81.53;101142.66;4931243;28;20066;-79
2022/07/12 01:15:44;;;;;;;4.57;2.95;;;;;;;16.54;81.65;101138.28;4932740;28;20051;-78
2022/07/12 01:18:13;;;;;;;2.72;2.50;;;;;;;16.52;81.71;101134.00;4929140;28;20322;-79
2022/07/12 01:20:40;;;;;;;3.28;2.58;;;;;;;16.55;81.59;101137.31;4926163;28;21696;-78
2022/07/12 01:23:08;;;;;;;2.70;2.50;;;;;;;16.50;81.26;101128.75;4934186;28;20051;-79
2022/07/12 01:25:34;;;;;;;4.30;2.95;;;;;;;16.45;81.40;101133.50;4931410;28;20048;-78
2022/07/12 01:28:02;;;;;;;3.25;2.50;;;;;;;16.19;81.98;101105.66;4926101;28;20112;-79
2022/07/12 01:30:29;;;;;;;3.85;3.10;;;;;;;16.32;82.13;101137.84;4931222;28;20052;-78
2022/07/12 01:32:58;;;;;;;4.82;3.03;;;;;;;16.16;82.77;101107.63;4932750;28;20051;-78
2022/07/12 01:35:25;;;;;;;2.58;2.38;;;;;;;16.25;82.94;101131.97;4935540;28;20059;-78
2022/07/12 01:37:52;;;;;;;3.45;2.70;;;;;;;16.25;83.17;101137.34;4930371;29;20103;-78
2022/07/12 01:40:20;;;;;;;3.40;2.58;;;;;;;16.19;83.33;101137.72;4936688;28;20044;-78
2022/07/12 01:42:48;;;;;;;4.32;2.80;;;;;;;16.19;83.87;101127.03;4932810;28;20044;-78
2022/07/12 01:45:15;;;;;;;3.17;2.88;;;;;;;16.29;83.52;101130.00;4927008;28;20051;-79
2022/07/12 01:47:42;;;;;;;3.10;2.80;;;;;;;16.30;82.81;101129.91;4931739;28;20059;-78
2022/07/12 01:50:10;;;;;;;5.15;3.08;;;;;;;16.28;83.14;101131.81;4931376;29;20056;-78
2022/07/12 01:52:39;;;;;;;3.10;2.70;;;;;;;16.12;83.20;101112.28;4928381;28;20060;-79
2022/07/12 01:55:10;;;;;;;3.40;2.90;;;;;;;16.21;83.57;101133.16;4932880;28;20059;-79
2022/07/12 01:57:40;;;;;;;3.30;2.83;;;;;;;16.21;84.00;101145.63;4937549;28;20078;-79
2022/07/12 02:00:08;;;;;;;2.83;2.35;;;;;;;16.15;83.80;101133.50;4928251;28;20048;-78
2022/07/12 02:02:34;;;;;;;3.58;2.38;;;;;;;16.09;83.88;101109.78;4928957;28;20492;-78
2022/07/12 02:05:02;;;;;;;3.92;2.70;;;;;;;16.13;83.96;101117.53;4933589;28;20400;-79
2022/07/12 02:07:30;;;;;;;3.00;2.80;;;;;;;16.03;84.03;101111.03;4933565;28;20051;-78
2022/07/12 02:09:57;;;;;;;2.47;2.28;;;;;;;16.12;84.35;101121.16;4931706;28;20118;-79
2022/07/12 02:12:24;;;;;;;2.63;2.40;;;;;;;16.07;84.20;101115.22;4931979;28;20048;-79
2022/07/12 02:14:51;;;;;;;2.97;2.55;;;;;;;16.04;84.65;101120.75;4930534;28;20555;-79
2022/07/12 02:17:18;;;;;;;4.30;2.75;;;;;;;15.96;84.75;101114.13;4935480;28;20055;-79
2022/07/12 02:19:45;;;;;;;3.78;2.75;;;;;;;15.91;85.29;101109.03;4933690;28;20044;-79
2022/07/12 02:22:12;;;;;;;5.30;2.70;;;;;;;15.89;85.80;101118.13;4926989;28;20047;-79
2022/07/12 02:24:39;;;;;;;3.45;2.88;;;;;;;15.80;85.71;101106.13;4933119;28;20055;-77
2022/07/12 02:27:06;;;;;;;3.83;2.50;;;;;;;15.81;85.83;101120.34;4929862;28;20047;-79
2022/07/12 02:29:33;;;;;;;2.88;2.58;;;;;;;15.75;85.93;101117.06;4935428;28;20058;-79
2022/07/12 02:32:02;;;;;;;3.50;2.63;;;;;;;15.78;86.35;101129.41;4933723;28;20482;-79
2022/07/12 02:34:30;;;;;;;3.67;2.22;;;;;;;15.83;86.36;101130.00;4928401;28;20059;-80
2022/07/12 02:36:58;;;;;;;3.35;2.70;;;;;;;15.77;85.90;101115.19;4931806;28;20051;-79
2022/07/12 02:39:25;;;;;;;2.53;2.33;;;;;;;15.86;85.88;101123.63;4934126;28;20044;-79
2022/07/12 02:41:52;;;;;;;2.80;2.15;;;;;;;15.76;85.96;101125.94;4929562;28;20717;-79
2022/07/12 02:44:19;;;;;;;2.50;2.30;;;;;;;15.75;86.44;101125.09;4929730;28;20047;-79
2022/07/12 02:46:46;;;;;;;2.40;2.20;;;;;;;15.73;86.84;101124.34;4931286;28;20405;-79
2022/07/12 02:49:13;;;;;;;2.42;2.22;;;;;;;15.76;87.00;101128.63;4935534;28;20079;-79
2022/07/12 02:51:40;;;;;;;2.65;2.42;;;;;;;15.75;87.17;101138.44;4935425;28;20051;-79
2022/07/12 02:54:07;;;;;;;2.53;2.22;;;;;;;15.76;87.58;101137.50;4930167;28;20063;-80
2022/07/12 02:56:33;;;;;;;2.47;2.28;;;;;;;15.74;87.69;101136.72;4933642;28;20050;-81
2022/07/12 02:59:00;;;;;;;2.33;2.13;;;;;;;15.71;87.56;101133.38;4936893;28;20106;-79
2022/07/12 03:01:27;;;;;;;3.47;2.60;;;;;;;15.62;87.73;101126.72;4938960;28;20047;-80
2022/07/12 03:03:54;;;;;;;2.63;2.30;;;;;;;15.74;87.44;101144.72;4934746;28;20051;-81
2022/07/12 03:06:20;;;;;;;5.35;2.65;;;;;;;15.70;87.26;101145.88;4939404;28;20059;-79
2022/07/12 03:08:47;;;;;;;3.05;2.70;;;;;;;15.68;86.89;101155.75;4939987;28;20048;-78
2022/07/12 03:11:14;;;;;;;5.22;2.72;;;;;;;15.63;86.82;101155.16;4941812;28;20047;-77
2022/07/12 03:13:40;;;;;;;4.57;3.00;;;;;;;15.45;86.57;101132.97;4935321;28;20047;-78
2022/07/12 03:16:07;;;;;;;3.58;2.58;;;;;;;15.46;86.67;101147.19;4937575;28;20054;-79
2022/07/12 03:18:34;;;;;;;3.35;2.63;;;;;;;15.43;86.83;101160.69;4930621;28;20044;-78
2022/07/12 03:21:01;;;;;;;3.90;2.67;;;;;;;15.35;87.54;101166.47;4937744;28;20052;-77
2022/07/12 03:23:28;;;;;;;3.50;3.20;;;;;;;15.24;87.71;101157.31;4933814;28;20082;-77
2022/07/12 03:25:55;;;;;;;2.70;2.50;;;;;;;15.04;88.31;101143.25;4926107;28;20058;-80
2022/07/12 03:28:22;;;;;;;2.75;2.55;;;;;;;15.08;88.20;101168.81;4929951;28;20055;-79
2022/07/12 03:30:48;;;;;;;3.15;2.85;;;;;;;15.12;89.10;101181.97;4929276;28;20048;-79
2022/07/12 03:33:15;;;;;;;3.45;2.80;;;;;;;14.96;88.99;101156.13;4936989;28;20737;-79
2022/07/12 03:35:42;;;;;;;2.65;2.45;;;;;;;15.07;89.44;101172.44;4934958;28;20048;-80
2022/07/12 03:38:09;;;;;;;3.67;2.92;;;;;;;15.07;89.59;101169.75;4931441;28;20047;-80
2022/07/12 03:40:36;;;;;;;3.03;2.45;;;;;;;15.13;89.32;101173.88;4929512;28;20054;-78
2022/07/12 03:43:02;;;;;;;2.50;2.30;;;;;;;15.18;89.47;101173.66;4927481;28;20112;-79
2022/07/12 03:45:29;;;;;;;2.95;2.65;;;;;;;15.25;89.12;101183.94;4931834;28;20052;-81
2022/07/12 03:47:56;;;;;;;3.05;2.72;;;;;;;15.30;89.02;101178.31;4932905;28;20047;-78
2022/07/12 03:50:23;;;;;;;3.13;2.83;;;;;;;15.29;88.64;101171.25;4932588;28;20139;-78
2022/07/12 03:52:50;;;;;;;3.22;2.60;;;;;;;15.29;89.16;101173.94;4930444;28;20052;-79
2022/07/12 03:55:17;;;;;;;3.45;2.95;;;;;;;15.20;89.69;101147.75;4929992;28;20040;-79
2022/07/12 03:57:44;;;;;;;4.50;2.85;;;;;;;15.33;89.93;101162.16;4931942;28;20047;-79
2022/07/12 04:00:12;;;;;;;4.13;2.83;;;;;;;15.24;89.96;101144.84;4928004;28;20469;-79
2022/07/12 04:02:42;;;;;;;3.90;2.80;;;;;;;15.38;90.10;101163.63;4929124;28;20043;-79
2022/07/12 04:05:10;;;;;;;4.13;2.80;;;;;;;15.28;90.09;101141.03;4932567;28;20059;-79
2022/07/12 04:07:37;;;;;;;3.80;2.80;;;;;;;15.43;90.37;101168.69;4929531;28;20794;-79
2022/07/12 04:10:05;;;;;;;3.13;2.75;;;;;;;15.49;90.79;101156.84;4931316;28;20119;-80
2022/07/12 04:12:32;;;;;;;2.78;2.50;;;;;;;15.52;90.20;101173.56;4931987;28;20051;-80
2022/07/12 04:14:59;;;;;;;3.08;2.80;;;;;;;15.49;90.48;101160.38;4930509;28;20044;-79
2022/07/12 04:17:26;;;;;;;5.30;2.78;;;;;;;15.54;90.00;101185.00;4928240;28;20047;-78
2022/07/12 04:19:53;;;;;;;5.18;3.10;;;;;;;15.44;88.43;101181.97;4929958;28;20876;-77
2022/07/12 04:22:19;;;;;;;3.40;3.10;;;;;;;15.24;88.19;101171.53;4932103;28;20131;-79
2022/07/12 04:24:46;;;;;;;3.22;2.97;;;;;;;15.14;89.60;101182.75;4927998;28;20055;-79
2022/07/12 04:27:13;;;;;;;4.10;3.65;;;;;;;15.04;90.34;101187.72;4932970;28;20062;-79
2022/07/12 04:29:40;;;;;;;3.65;3.33;;;;;;;14.99;90.67;101184.44;4931820;28;20072;-79
2022/07/12 04:32:07;;;;;;;4.55;3.75;;;;;;;14.94;90.73;101179.38;4932927;28;20052;-78
2022/07/12 04:34:34;;;;;;;3.75;3.42;;;;;;;15.00;90.43;101186.16;4923806;28;20068;-79
2022/07/12 04:37:01;;;;;;;4.53;3.20;;;;;;;15.04;90.30;101196.59;4932230;28;20172;-79
2022/07/12 04:39:27;;;;;;;4.70;3.28;;;;;;;15.06;90.45;101199.19;4932798;29;20064;-79
2022/07/12 04:41:54;;;;;;;3.40;3.10;;;;;;;15.08;90.89;101205.31;4932521;28;20047;-79
2022/07/12 04:44:21;;;;;;;3.40;3.10;;;;;;;15.14;90.81;101204.09;4932258;28;20121;-79
2022/07/12 04:46:48;;;;;;;4.82;3.13;;;;;;;15.14;90.89;101185.41;4938358;28;20047;-79
2022/07/12 04:49:15;;;;;;;3.80;3.50;;;;;;;15.28;90.37;101193.53;4927057;28;20056;-78
2022/07/12 04:51:42;;;;;;;3.50;3.17;;;;;;;15.38;89.80;101200.13;4931096;28;20044;-78
2022/07/12 04:54:09;;;;;;;6.38;3.22;;;;;;;15.47;89.63;101198.75;4929287;28;20105;-77
2022/07/12 04:56:35;;;;;;;4.18;3.13;;;;;;;15.50;89.03;101202.13;4933822;28;20043;-79
2022/07/12 04:59:02;;;;;;;6.13;3.30;;;;;;;15.66;88.79;101212.88;4929783;28;20119;-79
2022/07/12 05:01:30;;;;;;;3.75;3.35;;;;;;;15.75;88.48;101213.19;4930989;28;20044;-79
2022/07/12 05:03:57;;;;;;;3.63;3.25;;;;;;;15.89;87.91;101214.28;4932304;28;20043;-79
2022/07/12 05:06:23;;;;;;;3.65;3.30;;;;;;;16.01;87.43;101214.44;4928600;28;20096;-77
2022/07/12 05:08:50;;;;;;;4.32;3.30;;;;;;;15.99;88.18;101188.75;4933298;28;20047;-78
2022/07/12 05:11:17;;;;;;;6.28;3.30;;;;;;;16.30;86.64;101222.59;4929448;28;20044;-78
2022/07/12 05:13:44;;;;;;;3.85;3.33;;;;;;;16.37;86.05;101222.13;4933544;28;20052;-78
2022/07/12 05:16:11;;;;;;;3.17;2.88;;;;;;;16.45;85.55;101219.03;4927814;28;20043;-81
2022/07/12 05:18:38;;;;;;;5.03;3.45;;;;;;;16.49;85.23;101210.75;4933504;28;20063;-77
2022/07/12 05:21:05;;;;;;;3.92;2.95;;;;;;;16.70;85.27;101226.50;4934333;28;20052;-79
2022/07/12 05:23:31;;;;;;;4.07;3.65;;;;;;;16.88;83.80;101228.09;4934283;28;20405;-78
2022/07/12 05:25:58;;;;;;;3.67;2.80;;;;;;;16.97;83.72;101232.91;4936227;28;20058;-78
2022/07/12 05:28:25;;;;;;;5.57;3.10;;;;;;;17.04;83.35;101228.00;4933945;28;20363;-78
2022/07/12 05:30:52;;;;;;;5.10;3.10;;;;;;;17.10;83.57;101236.53;4933271;28;20504;-79
2022/07/12 05:33:19;;;;;;;4.00;3.25;;;;;;;17.17;83.06;101245.91;4935458;28;20051;-79
2022/07/12 05:35:47;;;;;;;4.35;2.95;;;;;;;17.25;83.30;101236.56;4950730;28;20048;-80
2022/07/12 05:38:14;;;;;;;3.40;2.72;;;;;;;17.33;82.74;101227.09;4951647;28;20043;-77
2022/07/12 05:40:41;;;;;;;4.60;2.90;;;;;;;17.54;82.01;101249.00;4952242;28;20048;-79
2022/07/12 05:43:10;;;;;;;4.07;2.90;;;;;;;17.63;81.30;101242.22;4945318;28;20051;-79
2022/07/12 05:45:37;;;;;;;3.55;2.88;;;;;;;17.75;81.57;101252.19;4940029;28;20207;-79
2022/07/12 05:48:04;;;;;;;3.15;2.92;;;;;;;17.78;80.53;101252.88;4941283;28;20110;-79
2022/07/12 05:50:31;;;;;;;3.42;3.13;;;;;;;17.76;80.10;101236.03;4935364;28;20067;-80
2022/07/12 05:55:44;;;;;;;4.20;2.90;;;;;;;18.15;79.31;101251.34;4930888;28;20505;-79
2022/07/12 05:58:11;;;;;;;4.00;2.97;;;;;;;18.20;78.70;101241.19;4935293;28;20139;-80
2022/07/12 06:00:38;;;;;;;3.83;3.53;;;;;;;18.33;77.58;101254.66;4932887;28;20071;-79
2022/07/12 06:03:05;;;;;;;4.35;3.50;;;;;;;18.31;78.16;101261.06;4928903;28;20050;-79
2022/07/12 06:05:32;;;;;;;3.30;2.80;;;;;;;18.38;78.13;101262.41;4935532;28;20093;-79
2022/07/12 06:07:59;;;;;;;3.00;2.70;;;;;;;18.41;78.18;101246.13;4939521;28;20268;-78
2022/07/12 06:10:26;;;;;;;3.97;2.88;;;;;;;18.66;77.76;101258.78;4930975;28;20126;-79
2022/07/12 06:12:52;;;;;;;3.03;2.70;;;;;;;18.89;76.61;101258.94;4925163;28;20043;-72
2022/07/12 06:15:21;;;;;;;3.58;3.10;;;;;;;19.14;74.66;101247.41;4920348;28;20513;-73
2022/07/12 06:17:48;;;;;;;3.60;3.28;;;;;;;19.32;74.01;101250.63;4924847;28;20048;-73
2022/07/12 06:20:15;;;;;;;6.22;3.53;;;;;;;19.44;73.53;101268.56;4922410;28;20047;-74
2022/07/12 06:22:42;;;;;;;3.08;2.78;;;;;;;19.50;73.59;101253.88;4917471;28;20055;-71
2022/07/12 06:25:09;;;;;;;4.22;2.85;;;;;;;19.93;71.95;101287.47;4924567;28;20051;-73
2022/07/12 06:27:59;;;;;;;4.57;2.50;;;;;;;20.39;70.96;101269.84;4927796;28;20052;-73
2022/07/12 06:30:25;;;;;;;2.80;2.60;;;;;;;20.99;67.03;101267.91;4926803;28;20075;-72
2022/07/12 06:32:52;;;;;;;4.93;3.05;;;;;;;21.52;65.32;101276.38;4929212;28;20135;-73
2022/07/12 06:35:20;;;;;;;3.90;2.70;;;;;;;22.10;62.56;101276.28;4937561;28;20467;-72
2022/07/12 06:37:47;;;;;;;2.90;2.55;;;;;;;22.47;61.70;101264.19;4929525;28;20051;-72
2022/07/12 06:40:24;;;;;;;4.22;2.60;;;;;;;22.98;59.40;101264.34;4938681;29;20066;-72
2022/07/12 06:42:51;;;;;;;3.08;2.88;;;;;;;23.16;57.76;101242.16;4930637;28;20086;-73
2022/07/12 06:45:19;;;;;;;3.00;2.50;;;;;;;23.51;56.39;101271.53;4927551;28;20052;-74
2022/07/12 06:47:46;;;;;;;3.65;2.35;;;;;;;23.72;55.94;101266.97;4931681;28;20055;-73
2022/07/12 06:50:14;;;;;;;2.58;2.30;;;;;;;23.79;54.24;101251.91;4932546;28;20126;-73
2022/07/12 06:52:41;;;;;;;2.53;2.30;;;;;;;23.98;52.69;101276.34;4931964;28;20062;-72
2022/07/12 06:55:08;;;;;;;1.95;1.75;;;;;;;24.02;55.11;101275.06;4929173;28;20054;-72
2022/07/12 06:57:36;;;;;;;2.63;2.05;;;;;;;23.97;53.46;101279.16;4923442;28;20510;-73
2022/07/12 07:00:05;;;;;;;2.38;2.17;;;;;;;23.89;52.33;101282.56;4926662;28;20071;-74
2022/07/12 07:02:32;;;;;;;2.60;2.33;;;;;;;23.78;53.15;101288.91;4923103;28;20056;-71
2022/07/12 07:04:59;;;;;;;2.85;2.17;;;;;;;23.59;53.51;101280.75;4918710;28;20070;-71
2022/07/12 07:07:25;;;;;;;3.45;1.92;;;;;;;23.65;55.71;101287.44;4931883;28;20059;-70
2022/07/12 07:09:52;;;;;;;2.13;1.92;;;;;;;23.67;54.04;101280.03;4926996;29;20445;-72
2022/07/12 07:12:19;;;;;;;2.20;2.03;;;;;;;23.82;54.29;101281.41;4927228;28;20075;-74
2022/07/12 07:14:46;;;;;;;2.00;1.85;;;;;;;23.95;52.19;101262.22;4923631;28;20416;-75
2022/07/12 07:17:16;;;;;;;1.98;1.80;;;;;;;24.11;52.24;101285.06;4931873;28;20561;-77
2022/07/12 07:19:44;;;;;;;3.42;2.58;;;;;;;24.14;53.97;101271.25;4934288;28;20115;-79
2022/07/12 07:22:13;;;;;;;4.05;1.92;;;;;;;23.83;52.61;101287.66;4932070;28;20059;-77
2022/07/12 07:24:40;;;;;;;3.10;2.55;;;;;;;23.52;54.18;101275.97;4927058;28;20182;-78
2022/07/12 07:27:07;;;;;;;2.28;2.13;;;;;;;23.81;53.55;101295.91;4925523;28;20503;-76
2022/07/12 07:32:20;;;;;;;2.42;2.22;;;;;;;24.64;51.01;101275.81;4928315;28;20043;-78
2022/07/12 07:34:46;;;;;;;2.20;1.70;;;;;;;24.73;51.87;101269.53;4931099;28;20055;-77
2022/07/12 07:37:13;;;;;;;2.45;2.10;;;;;;;24.77;51.04;101293.47;4930456;28;20055;-77
2022/07/12 07:39:41;;;;;;;1.88;1.67;;;;;;;24.73;52.07;101286.63;4933936;28;20090;-77
2022/07/12 07:42:07;;;;;;;2.33;2.05;;;;;;;24.68;51.38;101288.94;4933115;28;20075;-77
2022/07/12 07:44:34;;;;;;;1.52;1.42;;;;;;;24.85;51.31;101289.22;4934840;28;20950;-77
2022/07/12 07:47:12;;;;;;;1.70;1.60;;;;;;;25.24;49.01;101293.63;4928761;28;20052;-79
2022/07/12 07:49:39;;;;;;;2.22;1.52;;;;;;;25.64;48.65;101298.03;4928899;28;20500;-78
2022/07/12 07:52:11;;;;;;;2.28;1.80;;;;;;;25.97;47.05;101292.03;4926529;28;20130;-76
2022/07/12 07:54:37;;;;;;;1.92;1.60;;;;;;;25.90;46.63;101282.78;4926328;28;20051;-77
2022/07/12 07:57:05;;;;;;;1.55;1.45;;;;;;;25.53;48.11;101289.00;4922514;28;20362;-77
2022/07/12 07:59:31;;;;;;;3.03;1.70;;;;;;;25.26;48.71;101291.63;4925008;28;20060;-78
2022/07/12 08:01:58;;;;;;;2.40;1.80;;;;;;;25.19;48.21;101287.78;4929918;29;20052;-78
2022/07/12 08:04:25;;;;;;;1.23;1.20;;;;;;;25.18;47.99;101281.50;4927706;28;20181;-77
2022/07/12 08:06:51;;;;;;;2.53;1.10;;;;;;;25.43;47.16;101274.63;4933033;29;20086;-77
2022/07/12 08:09:18;;;;;;;1.45;1.35;;;;;;;25.61;46.07;101273.88;4924388;28;20040;-78
2022/07/12 08:11:45;;;;;;;1.70;1.60;;;;;;;25.64;45.77;101276.31;4928421;29;20047;-79
2022/07/12 08:14:11;;;;;;;2.45;1.38;;;;;;;25.58;47.15;101274.16;4924697;28;20139;-77
2022/07/12 08:16:38;;;;;;;1.95;1.35;;;;;;;25.63;46.20;101258.34;4928136;28;20098;-77
2022/07/12 08:19:07;;;;;;;1.60;1.50;;;;;;;25.62;46.33;101241.19;4936780;28;20051;-80
2022/07/12 08:21:34;;;;;;;1.50;1.40;;;;;;;25.71;46.71;101255.72;4934470;28;20863;-76
2022/07/12 08:24:01;;;;;;;1.65;1.40;;;;;;;25.37;45.80;101256.22;4930892;28;20079;-76
2022/07/12 08:26:28;;;;;;;2.05;1.42;;;;;;;25.44;46.64;101261.91;4933387;28;20134;-75
2022/07/12 08:28:55;;;;;;;1.35;1.20;;;;;;;25.61;45.50;101241.31;4928459;28;20103;-77
2022/07/12 08:31:22;;;;;;;1.52;1.10;;;;;;;26.08;44.59;101263.84;4931772;28;20144;-75
2022/07/12 08:33:49;;;;;;;1.88;1.35;;;;;;;26.44;43.71;101270.22;4928727;28;20115;-78
2022/07/12 08:36:16;;;;;;;1.20;1.10;;;;;;;26.55;43.11;101264.56;4932387;28;20055;-77
2022/07/12 08:38:44;;;;;;;1.67;1.02;;;;;;;26.27;43.34;101271.03;4924971;28;20048;-78
2022/07/12 08:41:13;;;;;;;2.17;1.42;;;;;;;25.57;45.17;101253.47;4937971;28;20075;-77
2022/07/12 08:43:40;;;;;;;1.20;1.10;;;;;;;25.39;46.54;101273.19;4927877;28;20047;-77
2022/07/12 08:46:11;;;;;;;1.88;1.17;;;;;;;25.40;47.10;101268.63;4930025;28;20047;-77
2022/07/12 08:48:40;;;;;;;1.55;1.45;;;;;;;25.65;45.34;101278.03;4932684;28;20674;-77
2022/07/12 08:51:09;;;;;;;1.35;0.90;;;;;;;25.84;45.31;101275.22;4932941;28;20070;-75
2022/07/12 08:53:36;;;;;;;1.17;1.13;;;;;;;26.30;44.93;101284.28;4925351;28;20055;-78
2022/07/12 08:56:04;;;;;;;1.23;1.13;;;;;;;26.50;44.67;101280.47;4924528;28;20059;-76
2022/07/12 08:58:31;;;;;;;1.77;1.33;;;;;;;26.55;43.38;101278.16;4928177;28;20059;-77
2022/07/12 09:00:58;;;;;;;2.65;0.90;;;;;;;26.39;43.61;101265.25;4927998;28;20154;-77
2022/07/12 09:03:25;;;;;;;1.63;0.90;;;;;;;26.55;44.13;101278.16;4927140;28;20076;-78
2022/07/12 09:05:54;;;;;;;0.90;0.90;;;;;;;26.57;42.79;101273.41;4931185;28;20111;-78
2022/07/12 09:08:26;;;;;;;0.98;0.90;;;;;;;26.54;41.91;101276.44;4932237;28;20130;-75
2022/07/12 09:11:00;;;;;;;1.50;1.10;;;;;;;26.24;43.77;101274.88;4931074;28;20060;-77
2022/07/12 09:13:50;;;;;;;2.42;1.17;;;;;;;25.44;45.59;101265.50;4930348;28;20047;-78
2022/07/12 09:16:21;;;;;;;1.03;0.93;;;;;;;25.39;45.49;101256.94;4924966;28;20063;-77
2022/07/12 09:18:50;;;;;;;1.02;0.93;;;;;;;25.77;44.67;101238.84;4927726;28;20095;-77
2022/07/12 09:21:29;;;;;;;1.17;0.98;;;;;;;26.17;43.69;101263.78;4932982;28;20048;-75
2022/07/12 09:23:59;;;;;;;3.15;1.30;;;;;;;25.90;44.18;101257.50;4930977;28;20147;-77
2022/07/12 09:26:35;;;;;;;2.00;1.10;;;;;;;25.59;44.82;101224.34;4919591;28;20044;-76
2022/07/12 09:29:11;;;;;;;1.10;0.98;;;;;;;25.84;45.21;101264.38;4923281;28;20984;-75
2022/07/12 09:37:21;;;;;;;1.52;1.38;;;;;;;25.03;46.92;101263.13;4929863;28;20072;-77
2022/07/12 09:39:48;;;;;;;2.22;1.08;;;;;;;24.57;47.40;101269.22;4928627;28;20047;-77
2022/07/12 09:42:15;;;;;;;1.10;1.00;;;;;;;24.11;48.58;101268.81;4923648;28;20051;-78
2022/07/12 09:44:42;;;;;;;1.60;1.50;;;;;;;23.82;49.26;101257.06;4928064;28;20059;-76
2022/07/12 09:47:13;;;;;;;1.10;1.10;;;;;;;23.61;50.12;101258.97;4930643;28;20051;-78
2022/07/12 09:49:41;;;;;;;1.88;1.10;;;;;;;23.80;48.78;101269.84;4932669;28;20048;-78
2022/07/12 09:52:21;;;;;;;1.30;1.15;;;;;;;23.84;48.84;101259.63;4926506;28;20055;-73
2022/07/12 09:54:52;;;;;;;1.55;1.15;;;;;;;24.02;48.82;101272.38;4921179;28;20140;-79
2022/07/12 09:57:31;;;;;;;2.03;1.20;;;;;;;23.88;48.54;101270.03;4931254;28;20056;-76
2022/07/12 10:00:01;;;;;;;1.10;1.00;;;;;;;24.07;48.73;101262.00;4929666;28;20044;-76
2022/07/12 10:02:27;;;;;;;0.93;0.93;;;;;;;24.34;47.24;101245.13;4929488;28;20055;-77
2022/07/12 10:04:59;;;;;;;1.70;1.17;;;;;;;24.64;47.71;101265.81;4930485;29;20075;-77
2022/07/12 10:07:26;;;;;;;1.50;1.00;;;;;;;24.55;48.01;101268.53;4929596;29;20079;-77
2022/07/12 10:09:54;;;;;;;3.08;1.13;;;;;;;24.38;48.11;101260.09;4934798;28;20531;-77
2022/07/12 10:12:23;;;;;;;1.35;1.15;;;;;;;24.34;48.33;101247.84;4929250;28;20066;-74
2022/07/12 10:15:00;;;;;;;1.13;1.02;;;;;;;24.50;48.18;101259.97;4921292;28;20047;-76
2022/07/12 10:17:28;;;;;;;2.22;1.00;;;;;;;24.60;47.64;101248.13;4929177;28;20053;-77
2022/07/12 10:20:18;;;;;;;1.25;1.13;;;;;;;24.60;47.28;101260.81;4928991;28;20228;-79
2022/07/12 10:22:45;;;;;;;1.38;1.10;;;;;;;24.40;46.69;101251.81;4929824;28;20051;-77
2022/07/12 10:25:32;;;;;;;1.00;0.90;;;;;;;24.25;48.02;101254.06;4930120;28;20055;-75
2022/07/12 10:28:02;;;;;;;2.85;1.27;;;;;;;24.12;48.00;101262.41;4927309;28;20089;-77
2022/07/12 10:30:30;;;;;;;1.17;1.08;;;;;;;24.21;47.98;101266.16;4927090;28;20075;-76
2022/07/12 10:33:00;;;;;;;1.33;0.93;;;;;;;24.31;47.34;101264.34;4927345;28;20060;-77
2022/07/12 10:35:30;;;;;;;1.27;0.88;;;;;;;24.42;46.22;101263.38;4926652;28;20064;-77
2022/07/12 10:38:11;;;;;;;1.63;0.82;;;;;;;24.41;45.49;101240.00;4927377;28;20039;-75
2022/07/12 10:40:43;;;;;;;0.70;0.70;;;;;;;24.70;45.26;101254.44;4926193;28;20043;-77
2022/07/12 10:43:10;;;;;;;2.25;0.90;;;;;;;24.87;45.38;101258.25;4925532;28;20058;-76
2022/07/12 10:45:38;;;;;;;2.15;0.90;;;;;;;24.82;44.98;101256.00;4928790;28;20419;-75
2022/07/12 10:48:18;;;;;;;0.70;0.70;;;;;;;24.80;44.22;101246.28;4927785;28;20067;-76
2022/07/12 10:50:45;;;;;;;0.77;0.77;;;;;;;24.89;43.78;101256.25;4928044;28;20481;-78
2022/07/12 10:53:30;;;;;;;0.73;0.52;;;;;;;25.03;43.76;101257.69;4926664;28;20056;-76
2022/07/12 10:56:15;;;;;;;0.82;0.82;;;;;;;25.21;42.49;101252.41;4927878;28;20542;-77
2022/07/12 10:59:00;;;;;;;1.10;0.77;;;;;;;25.25;42.87;101248.41;4927979;28;20063;-77
2022/07/12 11:01:29;;;;;;;0.70;0.65;;;;;;;25.47;42.23;101240.78;4933563;28;20067;-77
2022/07/12 11:04:05;;;;;;;1.48;0.80;;;;;;;25.64;42.29;101235.63;4936815;28;20838;-77
2022/07/12 11:06:37;;;;;;;1.77;0.98;;;;;;;25.84;41.07;101240.81;4925818;28;20056;-76
2022/07/12 11:09:10;;;;;;;0.63;0.60;;;;;;;25.96;41.01;101243.34;4927134;28;20481;-78
2022/07/12 11:11:50;;;;;;;0.85;0.73;;;;;;;26.12;41.25;101246.25;4934558;28;20048;-79
2022/07/12 11:14:25;;;;;;;0.70;0.70;;;;;;;26.13;40.40;101235.22;4929322;28;20055;-73
2022/07/12 11:16:54;;;;;;;0.80;0.75;;;;;;;26.02;40.26;101216.44;4930099;28;20063;-76
2022/07/12 11:19:31;;;;;;;1.75;0.80;;;;;;;26.17;40.13;101225.75;4936593;28;20508;-76
2022/07/12 11:21:58;;;;;;;1.55;0.60;;;;;;;26.24;40.45;101219.72;4932683;28;20095;-77
2022/07/12 11:24:30;;;;;;;0.80;0.80;;;;;;;26.10;39.85;101219.25;4924174;28;20119;-77
2022/07/12 11:26:59;;;;;;;0.60;0.60;;;;;;;25.95;39.66;101223.47;4927043;28;20528;-74
2022/07/12 11:29:27;;;;;;;0.52;0.52;;;;;;;25.85;40.30;101225.38;4926171;28;20055;-77
2022/07/12 11:32:07;;;;;;;0.93;0.70;;;;;;;25.91;39.61;101216.66;4929023;28;20051;-74
2022/07/12 11:34:38;;;;;;;0.63;0.60;;;;;;;26.17;39.76;101223.03;4933825;28;20082;-73
2022/07/12 11:37:05;;;;;;;0.68;0.57;;;;;;;26.29;39.82;101231.84;4927849;28;20064;-76
2022/07/12 11:39:36;;;;;;;0.57;0.50;;;;;;;26.42;39.71;101223.34;4922585;28;20059;-77
2022/07/12 11:42:05;;;;;;;1.83;0.70;;;;;;;26.59;38.69;101211.63;4929980;28;20080;-78